createdAt,value
2024-05-09T00:00:48.685Z,8.73
2024-05-09T00:05:51.815Z,10.60
2024-05-09T00:10:54.834Z,13.73
2024-05-09T00:15:57.909Z,9.73
2024-05-09T00:21:01.129Z,10.77
2024-05-09T00:26:04.191Z,10.80
2024-05-09T00:31:07.083Z,10.73
2024-05-09T00:36:10.101Z,10.90
2024-05-09T00:41:15.152Z,11.00
2024-05-09T00:46:19.677Z,10.57
2024-05-09T00:51:22.871Z,10.17
2024-05-09T00:56:26.692Z,8.93
2024-05-09T01:01:30.517Z,9.10
2024-05-09T01:06:33.452Z,9.77
2024-05-09T01:11:41.019Z,10.13
2024-05-09T01:16:44.185Z,11.97
2024-05-09T01:21:47.122Z,10.60
2024-05-09T01:26:50.227Z,9.80
2024-05-09T01:31:53.296Z,9.70
2024-05-09T01:36:56.269Z,10.97
2024-05-09T01:41:59.155Z,13.07
2024-05-09T01:47:02.179Z,9.57
2024-05-09T01:52:05.455Z,11.00
2024-05-09T01:57:08.562Z,9.87
2024-05-09T02:02:12.835Z,11.00
2024-05-09T02:07:16.245Z,10.50
2024-05-09T02:12:19.289Z,10.83
2024-05-09T02:17:22.875Z,12.13
2024-05-09T02:22:26.202Z,14.70
2024-05-09T02:27:29.413Z,12.77
2024-05-09T02:32:32.702Z,10.27
2024-05-09T02:37:35.908Z,9.97
2024-05-09T02:42:39.015Z,10.23
2024-05-09T02:47:42.210Z,10.13
2024-05-09T02:52:45.497Z,10.00
2024-05-09T02:57:48.710Z,11.77
2024-05-09T03:02:51.965Z,11.97
2024-05-09T03:07:55.219Z,12.10
2024-05-09T03:12:58.154Z,13.07
2024-05-09T03:18:01.815Z,12.10
2024-05-09T03:23:08.079Z,9.30
2024-05-09T03:28:12.489Z,8.03
2024-05-09T03:33:20.194Z,9.93
2024-05-09T03:38:23.810Z,12.53
2024-05-09T03:43:26.767Z,10.00
2024-05-09T03:48:29.826Z,9.43
2024-05-09T03:53:32.952Z,11.20
2024-05-09T03:58:37.773Z,11.90
2024-05-09T04:03:41.039Z,9.57
2024-05-09T04:08:44.335Z,11.63
2024-05-09T04:13:47.559Z,9.50
2024-05-09T04:18:50.811Z,11.27
2024-05-09T04:23:54.139Z,13.67
2024-05-09T04:28:57.160Z,11.33
2024-05-09T04:34:00.282Z,11.77
2024-05-09T04:39:03.469Z,10.73
2024-05-09T04:44:06.653Z,13.73
2024-05-09T04:49:10.007Z,8.70
2024-05-09T04:54:25.728Z,6.40
2024-05-09T04:59:33.691Z,8.67
2024-05-09T05:04:36.907Z,5.60
2024-05-09T05:09:39.837Z,5.23
2024-05-09T05:14:42.724Z,5.93
2024-05-09T05:19:48.059Z,6.20
2024-05-09T05:24:51.031Z,6.60
2024-05-09T05:29:53.905Z,6.83
2024-05-09T05:34:57.028Z,6.93
2024-05-09T05:39:59.937Z,6.40
2024-05-09T05:45:05.118Z,7.13
2024-05-09T05:50:20.498Z,8.40
2024-05-09T05:55:30.373Z,8.50
2024-05-09T06:00:38.475Z,9.10
2024-05-09T06:05:44.155Z,11.07
2024-05-09T06:10:47.798Z,8.80
2024-05-09T06:15:51.061Z,11.27
2024-05-09T06:20:54.012Z,9.43
2024-05-09T06:25:57.174Z,11.37
2024-05-09T06:31:03.494Z,11.03
2024-05-09T06:36:07.310Z,10.47
2024-05-09T06:41:10.492Z,12.50
2024-05-09T06:46:13.447Z,12.00
2024-05-09T06:51:16.755Z,11.53
2024-05-09T06:56:19.777Z,11.77
2024-05-09T07:01:23.054Z,13.47
2024-05-09T07:06:26.296Z,16.03
2024-05-09T07:11:31.662Z,13.97
2024-05-09T07:16:34.894Z,12.90
2024-05-09T07:21:37.778Z,12.33
2024-05-09T07:26:40.833Z,12.17
2024-05-09T07:31:44.050Z,12.20
2024-05-09T07:36:47.364Z,11.67
2024-05-09T07:41:50.514Z,12.33
2024-05-09T07:48:13.724Z,12.33
2024-05-09T07:53:29.938Z,12.53
2024-05-09T07:57:39.763Z,11.50
2024-05-09T08:02:42.960Z,10.67
2024-05-09T08:07:47.322Z,12.17
2024-05-09T08:12:50.248Z,11.47
2024-05-09T08:17:53.251Z,10.20
2024-05-09T08:22:56.447Z,10.23
2024-05-09T08:27:59.644Z,8.57
2024-05-09T08:33:06.097Z,9.67
2024-05-09T08:38:10.843Z,13.53
2024-05-09T08:43:15.569Z,7.40
2024-05-09T08:48:20.859Z,8.20
2024-05-09T08:53:23.952Z,7.90
2024-05-09T08:58:28.087Z,7.93
2024-05-09T09:03:34.547Z,6.63
2024-05-09T09:08:40.392Z,7.77
2024-05-09T09:13:43.382Z,6.70
2024-05-09T09:18:47.083Z,8.00
2024-05-09T09:23:50.143Z,8.33
2024-05-09T09:28:53.173Z,6.97
2024-05-09T09:33:56.317Z,6.50
2024-05-09T09:38:59.699Z,6.87
2024-05-09T09:44:04.986Z,6.93
2024-05-09T09:49:08.821Z,7.03
2024-05-09T09:54:13.252Z,5.97
2024-05-09T09:59:17.471Z,6.73
2024-05-09T10:04:20.836Z,6.60
2024-05-09T10:09:24.526Z,8.60
2024-05-09T10:14:30.943Z,9.20
2024-05-09T10:19:35.317Z,8.90
2024-05-09T10:25:08.442Z,7.50
2024-05-09T10:30:14.819Z,6.93
2024-05-09T10:35:26.685Z,6.67
2024-05-09T10:40:31.735Z,6.60
2024-05-09T10:45:36.564Z,6.77
2024-05-09T10:50:43.960Z,8.30
2024-05-09T10:55:58.055Z,8.30
2024-05-09T11:01:05.428Z,6.23
2024-05-09T11:06:11.591Z,7.10
2024-05-09T11:11:15.104Z,7.27
2024-05-09T11:16:21.140Z,7.10
2024-05-09T11:21:25.004Z,5.73
2024-05-09T11:26:29.608Z,6.30
2024-05-09T11:31:32.949Z,6.07
2024-05-09T11:36:36.275Z,5.57
2024-05-09T11:41:39.758Z,6.50
2024-05-09T11:46:44.611Z,5.67
2024-05-09T11:51:47.678Z,5.90
2024-05-09T11:56:51.762Z,5.77
2024-05-09T12:01:54.824Z,5.20
2024-05-09T12:06:57.889Z,4.83
2024-05-09T12:12:00.865Z,6.10
2024-05-09T12:17:05.844Z,6.20
2024-05-09T12:22:08.912Z,4.73
2024-05-09T12:27:11.939Z,4.60
2024-05-09T12:32:15.059Z,5.20
2024-05-09T12:37:19.188Z,5.27
2024-05-09T12:42:27.346Z,4.70
2024-05-09T12:47:31.629Z,5.03
2024-05-09T12:52:34.651Z,4.30
2024-05-09T12:57:37.752Z,6.20
2024-05-09T13:02:40.852Z,3.93
2024-05-09T13:07:44.013Z,3.93
2024-05-09T13:12:46.935Z,4.73
2024-05-09T13:17:49.942Z,4.10
2024-05-09T13:22:53.168Z,6.03
2024-05-09T13:27:57.386Z,6.53
2024-05-09T13:33:00.522Z,5.00
2024-05-09T13:38:04.884Z,4.00
2024-05-09T13:43:08.235Z,4.43
2024-05-09T13:48:11.482Z,4.20
2024-05-09T13:53:14.542Z,3.87
2024-05-09T13:58:18.014Z,5.97
2024-05-09T14:03:21.531Z,3.10
2024-05-09T14:08:24.700Z,4.07
2024-05-09T14:13:27.836Z,7.63
2024-05-09T14:18:31.134Z,4.20
2024-05-09T14:23:34.198Z,3.43
2024-05-09T14:28:37.168Z,5.20
2024-05-09T14:33:40.189Z,3.70
2024-05-09T14:38:43.485Z,4.50
2024-05-09T14:43:46.411Z,4.20
2024-05-09T14:48:50.028Z,4.00
2024-05-09T14:53:53.524Z,3.00
2024-05-09T14:58:57.256Z,3.00
2024-05-09T15:04:00.301Z,4.20
2024-05-09T15:09:06.539Z,2.50
2024-05-09T15:14:09.467Z,3.40
2024-05-09T15:19:12.885Z,3.87
2024-05-09T15:24:16.193Z,3.67
2024-05-09T15:29:19.248Z,5.33
2024-05-09T15:34:22.454Z,2.77
2024-05-09T15:39:25.739Z,4.10
2024-05-09T15:44:29.032Z,2.93
2024-05-09T15:49:32.082Z,3.37
2024-05-09T15:54:35.198Z,3.67
2024-05-09T15:59:38.689Z,2.93
2024-05-09T16:04:41.634Z,3.70
2024-05-09T16:09:44.836Z,3.60
2024-05-09T16:14:47.724Z,2.70
2024-05-09T16:19:50.656Z,6.50
2024-05-09T16:24:53.802Z,3.00
2024-05-09T16:30:03.966Z,4.13
2024-05-09T16:35:08.422Z,3.00
2024-05-09T16:40:22.029Z,3.00
2024-05-09T16:45:33.632Z,3.57
2024-05-09T16:50:37.354Z,2.50
2024-05-09T16:55:40.386Z,5.27
2024-05-09T17:00:44.297Z,4.13
2024-05-09T17:05:48.436Z,2.83
2024-05-09T17:10:51.690Z,5.30
2024-05-09T17:15:54.826Z,4.33
2024-05-09T17:20:57.730Z,3.40
2024-05-09T17:26:00.984Z,3.17
2024-05-09T17:31:03.968Z,7.03
2024-05-09T17:36:07.358Z,3.67
2024-05-09T17:41:10.402Z,4.50
2024-05-09T17:46:13.652Z,2.70
2024-05-09T17:51:16.614Z,3.00
2024-05-09T17:56:19.610Z,3.30
2024-05-09T18:01:23.824Z,3.53
2024-05-09T18:06:26.999Z,3.17
2024-05-09T18:11:30.265Z,2.83
2024-05-09T18:16:33.584Z,6.57
2024-05-09T18:21:36.692Z,3.60
2024-05-09T18:26:39.841Z,4.27
2024-05-09T18:31:42.961Z,3.03
2024-05-09T18:36:46.660Z,4.53
2024-05-09T18:41:49.564Z,5.27
2024-05-09T18:46:52.524Z,6.30
2024-05-09T18:51:55.433Z,3.57
2024-05-09T18:56:58.398Z,4.23
2024-05-09T19:02:01.504Z,3.33
2024-05-09T19:07:04.608Z,6.57
2024-05-09T19:12:08.047Z,3.50
2024-05-09T19:17:11.230Z,3.40
2024-05-09T19:22:14.231Z,4.30
2024-05-09T19:27:17.253Z,4.00
2024-05-09T19:32:20.334Z,3.57
2024-05-09T19:37:23.666Z,3.27
2024-05-09T19:42:27.567Z,3.13
2024-05-09T19:47:30.626Z,4.20
2024-05-09T19:52:33.640Z,3.97
2024-05-09T19:57:36.615Z,3.90
2024-05-09T20:02:39.865Z,5.10
2024-05-09T20:07:43.280Z,3.53
2024-05-09T20:12:46.287Z,10.30
2024-05-09T20:17:49.421Z,4.37
2024-05-09T20:22:52.531Z,4.47
2024-05-09T20:27:55.515Z,5.73
2024-05-09T20:32:58.729Z,6.47
2024-05-09T20:38:03.080Z,4.30
2024-05-09T20:43:09.673Z,5.00
2024-05-09T20:48:13.322Z,9.07
2024-05-09T20:53:16.297Z,4.90
2024-05-09T20:58:19.284Z,3.90
2024-05-09T21:03:22.317Z,6.50
2024-05-09T21:08:27.016Z,4.60
2024-05-09T21:13:30.105Z,4.60
2024-05-09T21:18:33.351Z,4.43
2024-05-09T21:23:38.107Z,4.90
2024-05-09T21:28:41.076Z,4.53
2024-05-09T21:33:44.326Z,5.30
2024-05-09T21:38:47.345Z,5.40
2024-05-09T21:43:50.278Z,6.00
2024-05-09T21:48:53.733Z,5.10
2024-05-09T21:53:58.967Z,5.40
2024-05-09T21:59:01.894Z,5.47
2024-05-09T22:04:05.031Z,6.00
2024-05-09T22:09:08.016Z,5.87
2024-05-09T22:14:10.992Z,6.37
2024-05-09T22:19:14.167Z,5.63
2024-05-09T22:24:17.134Z,5.80
2024-05-09T22:29:20.059Z,5.70
2024-05-09T22:34:23.429Z,6.10
2024-05-09T22:39:26.675Z,5.93
2024-05-09T22:44:29.902Z,6.50
2024-05-09T22:49:32.850Z,5.37
2024-05-09T22:54:36.039Z,5.83
2024-05-09T22:59:39.141Z,6.07
2024-05-09T23:04:42.106Z,6.23
2024-05-09T23:09:48.432Z,5.63
2024-05-09T23:14:51.641Z,6.60
2024-05-09T23:19:54.762Z,6.80
2024-05-09T23:24:57.999Z,6.40
2024-05-09T23:30:01.138Z,6.50
2024-05-09T23:35:04.240Z,6.43
2024-05-09T23:40:09.695Z,6.47
2024-05-09T23:45:13.032Z,5.90
2024-05-09T23:50:20.705Z,6.37
2024-05-09T23:55:31.314Z,5.90
